Time;durP1;ratioP1;P1;durP2;ratioP2;P2;SDS_P1;SDS_P2;PMS_P1;PMS_P2;Temp;Humidity;BMP_temperature;BMP_pressure;BME280_temperature;BME280_humidity;BME280_pressure;Samples;Min_cycle;Max_cycle;Signal;HPM_P1;HPM_P2
2022/12/03 00:01:12;;;;;;;50.40;27.97;;;5.10;99.90;;;;;;4974326;28;20031;-79
2022/12/03 00:03:38;;;;;;;49.50;26.07;;;5.10;99.90;;;;;;4989291;28;20041;-79
2022/12/03 00:06:05;;;;;;;46.93;26.00;;;5.10;99.90;;;;;;5008109;28;20030;-79
2022/12/03 00:08:31;;;;;;;52.17;27.30;;;5.10;99.90;;;;;;5006910;28;20050;-78
2022/12/03 00:10:57;;;;;;;53.33;27.93;;;5.10;99.90;;;;;;4992190;28;20030;-78
2022/12/03 00:13:23;;;;;;;46.40;26.60;;;5.10;99.90;;;;;;5007210;28;20046;-79
2022/12/03 00:15:49;;;;;;;43.47;25.80;;;5.10;99.90;;;;;;4990804;28;20042;-79
2022/12/03 00:18:15;;;;;;;50.63;28.03;;;5.10;99.90;;;;;;4997935;28;20038;-79
2022/12/03 00:20:41;;;;;;;44.53;24.83;;;5.20;99.90;;;;;;5021563;28;20034;-78
2022/12/03 00:23:07;;;;;;;39.83;20.93;;;5.10;99.90;;;;;;5007199;28;20054;-79
2022/12/03 00:25:33;;;;;;;44.83;25.07;;;5.20;99.90;;;;;;4988731;28;20054;-79
2022/12/03 00:27:59;;;;;;;48.67;23.07;;;5.10;99.90;;;;;;5003071;28;20050;-78
2022/12/03 00:30:25;;;;;;;26.83;17.53;;;5.20;99.90;;;;;;4990453;28;20038;-79
2022/12/03 00:32:51;;;;;;;45.90;25.97;;;5.20;99.90;;;;;;4974527;28;20034;-79
2022/12/03 00:35:17;;;;;;;29.10;17.50;;;5.10;99.90;;;;;;4992678;28;20038;-79
2022/12/03 00:37:44;;;;;;;21.83;15.50;;;5.10;99.90;;;;;;5002475;28;20035;-79
2022/12/03 00:40:10;;;;;;;41.80;24.10;;;5.00;99.90;;;;;;4982430;28;20035;-78
2022/12/03 00:42:36;;;;;;;24.63;16.53;;;5.00;99.90;;;;;;5003990;28;20126;-79
2022/12/03 00:45:03;;;;;;;43.83;22.63;;;4.90;99.90;;;;;;5023739;28;20057;-79
2022/12/03 00:47:29;;;;;;;31.40;19.90;;;4.90;99.90;;;;;;4990976;28;20376;-79
2022/12/03 00:49:55;;;;;;;34.00;19.60;;;4.90;99.90;;;;;;5006235;28;20049;-79
2022/12/03 00:52:21;;;;;;;26.40;17.47;;;4.90;99.90;;;;;;4991930;28;20057;-78
2022/12/03 00:54:47;;;;;;;34.07;20.50;;;4.90;99.90;;;;;;4991046;28;20034;-79
2022/12/03 00:57:13;;;;;;;41.33;22.80;;;4.80;99.90;;;;;;4989678;28;20391;-79
2022/12/03 00:59:40;;;;;;;18.43;13.73;;;4.90;99.90;;;;;;5006223;28;20201;-78
2022/12/03 01:02:06;;;;;;;26.53;15.77;;;4.80;99.90;;;;;;5004588;28;20053;-79
2022/12/03 01:04:32;;;;;;;37.67;22.23;;;4.70;99.90;;;;;;4991909;28;20403;-78
2022/12/03 01:06:59;;;;;;;42.37;22.33;;;4.70;99.90;;;;;;5024547;28;20046;-78
2022/12/03 01:09:25;;;;;;;38.43;22.87;;;4.80;99.90;;;;;;4974645;28;20046;-78
2022/12/03 01:11:51;;;;;;;41.33;22.80;;;4.80;99.90;;;;;;5023210;28;20068;-79
2022/12/03 01:14:18;;;;;;;23.20;16.40;;;4.80;99.90;;;;;;4992040;28;20049;-79
2022/12/03 01:16:44;;;;;;;39.87;23.53;;;4.80;99.90;;;;;;4991124;28;20036;-79
2022/12/03 01:19:14;;;;;;;16.23;14.63;;;4.70;99.90;;;;;;5006213;28;20468;-79
2022/12/03 01:21:41;;;;;;;38.67;23.20;;;4.60;99.90;;;;;;5023077;28;20042;-78
2022/12/03 01:24:07;;;;;;;29.87;17.73;;;4.70;99.90;;;;;;4992393;28;20479;-79
2022/12/03 01:26:33;;;;;;;39.77;23.70;;;4.60;99.90;;;;;;4975323;28;20423;-79
2022/12/03 01:28:59;;;;;;;41.87;25.03;;;4.60;99.90;;;;;;5024460;28;20049;-78
2022/12/03 01:34:10;;;;;;;29.20;20.30;;;4.60;99.90;;;;;;5001769;28;20510;-78
2022/12/03 01:36:36;;;;;;;51.70;25.10;;;4.60;99.90;;;;;;4989412;28;20030;-79
2022/12/03 01:39:02;;;;;;;36.93;21.13;;;4.60;99.90;;;;;;5023607;28;20404;-79
2022/12/03 01:41:29;;;;;;;38.50;25.60;;;4.60;99.90;;;;;;5006660;28;20038;-79
2022/12/03 01:43:55;;;;;;;35.70;21.07;;;4.60;99.90;;;;;;5005729;28;20026;-78
2022/12/03 01:46:22;;;;;;;30.00;18.70;;;4.60;99.90;;;;;;5001535;28;20407;-79
2022/12/03 01:48:49;;;;;;;41.70;23.80;;;4.60;99.90;;;;;;4988287;28;20031;-78
2022/12/03 01:51:15;;;;;;;40.67;23.70;;;4.60;99.90;;;;;;4989846;28;20034;-79
2022/12/03 01:53:42;;;;;;;44.03;25.93;;;4.60;99.90;;;;;;4974137;28;20062;-78
2022/12/03 01:56:10;;;;;;;34.50;21.67;;;4.60;99.90;;;;;;5019283;28;20026;-79
2022/12/03 01:58:36;;;;;;;23.87;15.80;;;4.60;99.90;;;;;;5006017;28;20042;-78
2022/12/03 02:01:05;;;;;;;46.60;24.60;;;4.60;99.90;;;;;;5023079;28;20041;-78
2022/12/03 02:03:31;;;;;;;40.57;23.67;;;4.60;99.90;;;;;;5021767;28;20034;-79
2022/12/03 02:05:57;;;;;;;42.27;26.27;;;4.60;99.90;;;;;;4974369;28;20035;-78
2022/12/03 02:08:25;;;;;;;45.53;25.27;;;4.60;99.90;;;;;;4989248;28;20061;-79
2022/12/03 02:10:51;;;;;;;36.10;21.60;;;4.60;99.90;;;;;;4991184;28;20026;-79
2022/12/03 02:13:18;;;;;;;45.00;26.37;;;4.60;99.90;;;;;;5021935;28;20038;-79
2022/12/03 02:15:44;;;;;;;26.23;18.67;;;4.70;99.90;;;;;;5007194;28;20027;-78
2022/12/03 02:18:10;;;;;;;22.57;15.80;;;4.70;99.90;;;;;;4992066;28;20356;-79
2022/12/03 02:20:43;;;;;;;38.23;23.90;;;4.60;99.90;;;;;;4992223;28;20041;-79
2022/12/03 02:23:12;;;;;;;39.73;20.53;;;4.60;99.90;;;;;;4975577;28;20035;-78
2022/12/03 02:25:38;;;;;;;37.83;19.93;;;4.60;99.90;;;;;;4974324;28;20077;-78
2022/12/03 02:28:05;;;;;;;29.63;18.03;;;4.70;99.90;;;;;;5003710;28;20049;-78
2022/12/03 02:30:31;;;;;;;43.57;24.23;;;4.70;99.90;;;;;;4975311;28;20038;-79
2022/12/03 02:32:57;;;;;;;33.40;21.23;;;4.70;99.90;;;;;;5009619;28;20037;-78
2022/12/03 02:35:25;;;;;;;34.63;21.47;;;4.70;99.90;;;;;;4992901;28;20410;-78
2022/12/03 02:37:57;;;;;;;40.37;22.83;;;4.70;99.90;;;;;;4978095;28;20102;-79
2022/12/03 02:40:25;;;;;;;37.47;24.20;;;4.60;99.90;;;;;;4995141;28;20053;-78
2022/12/03 02:42:54;;;;;;;34.83;22.40;;;4.70;99.90;;;;;;5011044;28;20037;-78
2022/12/03 02:45:25;;;;;;;34.53;21.00;;;4.70;99.90;;;;;;5005950;28;20041;-79
2022/12/03 02:47:53;;;;;;;;;;;4.70;99.90;;;;;;5011240;28;20030;-78
2022/12/03 02:50:22;;;;;;;29.47;18.53;;;4.70;99.90;;;;;;4996529;28;21425;-78
2022/12/03 02:52:48;;;;;;;35.37;20.70;;;4.70;99.90;;;;;;4991915;28;20019;-79
2022/12/03 02:55:14;;;;;;;28.63;17.63;;;4.70;99.90;;;;;;5021538;28;20029;-78
2022/12/03 02:57:40;;;;;;;34.97;21.83;;;4.60;99.90;;;;;;4990644;28;20035;-78
2022/12/03 03:00:08;;;;;;;32.67;20.80;;;4.60;99.90;;;;;;5008714;28;20050;-79
2022/12/03 03:02:36;;;;;;;32.13;20.17;;;4.60;99.90;;;;;;4979772;28;20037;-78
2022/12/03 03:05:02;;;;;;;27.73;21.17;;;4.60;99.90;;;;;;4997149;28;20408;-78
2022/12/03 03:07:28;;;;;;;29.30;21.13;;;4.60;99.90;;;;;;4974313;28;20034;-79
2022/12/03 03:09:55;;;;;;;30.77;20.63;;;4.70;99.90;;;;;;4973726;28;20039;-79
2022/12/03 03:12:21;;;;;;;29.57;20.83;;;4.60;99.90;;;;;;4969210;28;20053;-78
2022/12/03 03:14:47;;;;;;;26.47;21.03;;;4.60;99.90;;;;;;5024199;28;20034;-79
2022/12/03 03:17:13;;;;;;;31.70;21.10;;;4.60;99.90;;;;;;4991841;28;20416;-79
2022/12/03 03:19:39;;;;;;;29.43;21.60;;;4.50;99.90;;;;;;4975421;28;20407;-78
2022/12/03 03:22:05;;;;;;;15.40;13.97;;;4.50;99.90;;;;;;5007971;28;20046;-79
2022/12/03 03:24:31;;;;;;;22.10;19.47;;;4.50;99.90;;;;;;4989020;28;20038;-79
2022/12/03 03:26:57;;;;;;;21.60;15.90;;;4.50;99.90;;;;;;4965170;28;20046;-79
2022/12/03 03:29:23;;;;;;;19.83;16.53;;;4.50;99.90;;;;;;4972690;28;20131;-79
2022/12/03 03:31:49;;;;;;;22.97;18.13;;;4.50;99.90;;;;;;4984122;28;20030;-78
2022/12/03 03:34:16;;;;;;;19.10;16.90;;;4.50;99.90;;;;;;4989924;28;20041;-79
2022/12/03 03:36:42;;;;;;;24.73;19.50;;;4.40;99.90;;;;;;4999489;28;20034;-78
2022/12/03 03:39:08;;;;;;;12.43;11.23;;;4.40;99.90;;;;;;5008416;28;20033;-78
2022/12/03 03:41:34;;;;;;;21.57;19.23;;;4.40;99.90;;;;;;4992375;28;20053;-78
2022/12/03 03:44:00;;;;;;;24.03;17.23;;;4.30;99.90;;;;;;5008114;28;20732;-79
2022/12/03 03:46:26;;;;;;;17.70;15.83;;;4.30;99.90;;;;;;4975904;28;20042;-78
2022/12/03 03:48:52;;;;;;;16.47;14.97;;;4.30;99.90;;;;;;4992358;28;20395;-78
2022/12/03 03:51:18;;;;;;;15.27;13.77;;;4.30;99.90;;;;;;4985886;28;20034;-79
2022/12/03 03:53:48;;;;;;;18.13;15.63;;;4.20;99.90;;;;;;5009197;28;20035;-78
2022/12/03 03:56:18;;;;;;;16.53;14.87;;;4.20;99.90;;;;;;4988063;28;20038;-79
2022/12/03 03:58:44;;;;;;;15.97;14.47;;;4.20;99.90;;;;;;5009556;28;20107;-79
2022/12/03 04:01:11;;;;;;;17.23;15.43;;;4.20;99.90;;;;;;4991436;28;20026;-78
2022/12/03 04:03:37;;;;;;;13.93;12.93;;;4.20;99.90;;;;;;4956223;28;20038;-78
2022/12/03 04:06:03;;;;;;;15.97;14.33;;;4.20;99.90;;;;;;4959030;28;20026;-78
2022/12/03 04:08:30;;;;;;;14.07;13.03;;;4.20;99.90;;;;;;5009251;28;20045;-78
2022/12/03 04:13:41;;;;;;;18.97;15.97;;;4.20;99.90;;;;;;4996996;28;20034;-79
2022/12/03 04:16:07;;;;;;;19.33;17.30;;;4.20;99.90;;;;;;4993009;28;20034;-79
2022/12/03 04:18:41;;;;;;;17.93;16.33;;;4.20;99.90;;;;;;4977337;28;20487;-79
2022/12/03 04:24:04;;;;;;;21.13;18.90;;;4.20;99.90;;;;;;5007883;28;20495;-78
2022/12/03 04:29:14;;;;;;;21.23;19.00;;;4.30;99.90;;;;;;5001280;28;20057;-79
2022/12/03 04:37:09;;;;;;;19.03;17.17;;;4.30;99.90;;;;;;4984956;28;20106;-78
2022/12/03 04:39:35;;;;;;;17.13;15.60;;;4.20;99.90;;;;;;5008933;28;20031;-78
2022/12/03 04:42:02;;;;;;;18.80;16.87;;;4.30;99.90;;;;;;4992135;28;20039;-78
2022/12/03 04:44:37;;;;;;;21.20;19.00;;;4.30;99.90;;;;;;4991468;28;20490;-78
2022/12/03 04:47:29;;;;;;;26.67;22.37;;;4.30;99.90;;;;;;4992737;28;20038;-79
2022/12/03 04:49:56;;;;;;;16.93;15.30;;;4.30;99.90;;;;;;4972824;28;20047;-78
2022/12/03 04:52:22;;;;;;;16.17;14.47;;;4.30;99.90;;;;;;4991015;28;20034;-79
2022/12/03 04:54:48;;;;;;;15.83;14.43;;;4.30;99.90;;;;;;4996412;28;20030;-78
2022/12/03 04:57:14;;;;;;;22.07;17.53;;;4.30;99.90;;;;;;4995800;28;20027;-78
2022/12/03 04:59:40;;;;;;;16.13;14.63;;;4.30;99.90;;;;;;5007369;28;20042;-78
2022/12/03 05:02:06;;;;;;;21.13;17.20;;;4.30;99.90;;;;;;5020437;28;20031;-80
2022/12/03 05:04:32;;;;;;;15.60;14.03;;;4.30;99.90;;;;;;4957966;28;20053;-78
2022/12/03 05:06:58;;;;;;;14.07;13.13;;;4.30;99.90;;;;;;4995795;28;20030;-79
2022/12/03 05:09:24;;;;;;;25.73;20.30;;;4.30;99.90;;;;;;5024744;28;20396;-78
2022/12/03 05:11:50;;;;;;;15.67;13.70;;;4.30;99.90;;;;;;5006769;28;20026;-78
2022/12/03 05:14:16;;;;;;;17.37;15.57;;;4.30;99.90;;;;;;4991486;28;20420;-78
2022/12/03 05:16:43;;;;;;;18.53;14.10;;;4.30;99.90;;;;;;5023203;28;20042;-78
2022/12/03 05:19:09;;;;;;;16.00;14.17;;;4.30;99.90;;;;;;5023421;28;20041;-78
2022/12/03 05:21:35;;;;;;;13.43;12.40;;;4.30;99.90;;;;;;4993552;28;20045;-78
2022/12/03 05:24:01;;;;;;;26.03;19.13;;;4.30;99.90;;;;;;4998013;28;20034;-78
2022/12/03 05:26:28;;;;;;;22.60;17.93;;;4.30;99.90;;;;;;4985132;28;20046;-78
2022/12/03 05:28:54;;;;;;;17.73;15.87;;;4.40;99.90;;;;;;5019031;28;20042;-79
2022/12/03 05:31:20;;;;;;;24.23;19.13;;;4.40;99.90;;;;;;4990481;28;20031;-79
2022/12/03 05:33:46;;;;;;;27.10;20.93;;;4.40;99.90;;;;;;4992809;28;20034;-79
2022/12/03 05:36:12;;;;;;;20.40;16.57;;;4.40;99.90;;;;;;4990840;28;20050;-79
2022/12/03 05:38:38;;;;;;;21.10;17.00;;;4.40;99.90;;;;;;4991761;28;20034;-79
2022/12/03 05:42:52;;;;;;;21.93;17.60;;;4.40;99.90;;;;;;4969364;28;20035;-79
2022/12/03 05:43:53;;;;;;;27.27;19.93;;;4.40;99.90;;;;;;5003318;28;20510;-79
2022/12/03 05:46:19;;;;;;;24.47;18.03;;;4.40;99.90;;;;;;4991142;28;20030;-79
2022/12/03 05:48:45;;;;;;;26.10;18.67;;;4.40;99.90;;;;;;4975237;28;20058;-79
2022/12/03 05:51:11;;;;;;;22.90;16.47;;;4.40;99.90;;;;;;4991727;28;20026;-80
2022/12/03 05:53:38;;;;;;;22.53;17.87;;;4.40;99.90;;;;;;4991677;28;20041;-79
2022/12/03 05:56:04;;;;;;;17.93;16.17;;;4.40;99.90;;;;;;4995129;28;20038;-80
2022/12/03 05:58:30;;;;;;;21.07;18.23;;;4.40;99.90;;;;;;4991321;28;20041;-79
2022/12/03 06:00:56;;;;;;;27.50;19.27;;;4.50;99.90;;;;;;4981885;28;20045;-79
2022/12/03 06:03:22;;;;;;;30.33;21.73;;;4.50;99.90;;;;;;4975063;28;20031;-80
2022/12/03 06:05:48;;;;;;;23.70;19.13;;;4.50;99.90;;;;;;4993795;28;20034;-80
2022/12/03 06:08:14;;;;;;;24.10;17.77;;;4.50;99.90;;;;;;4991940;28;20048;-79
2022/12/03 06:10:40;;;;;;;32.07;20.60;;;4.50;99.90;;;;;;5011235;28;20042;-79
2022/12/03 06:13:06;;;;;;;24.20;19.97;;;4.50;99.90;;;;;;5009449;28;20033;-79
2022/12/03 06:15:33;;;;;;;23.57;19.83;;;4.50;99.90;;;;;;4974168;28;20026;-79
2022/12/03 06:17:59;;;;;;;19.37;16.63;;;4.50;99.90;;;;;;5017087;28;20042;-80
2022/12/03 06:20:25;;;;;;;27.37;19.80;;;4.50;99.90;;;;;;4982000;28;20040;-80
2022/12/03 06:22:51;;;;;;;34.80;22.17;;;4.50;99.90;;;;;;4980389;28;20034;-79
2022/12/03 06:25:17;;;;;;;35.17;22.97;;;4.50;99.90;;;;;;5003006;28;20049;-79
2022/12/03 06:27:43;;;;;;;21.50;18.37;;;4.50;99.90;;;;;;4994565;28;20034;-80
2022/12/03 06:30:11;;;;;;;28.67;21.33;;;4.50;99.90;;;;;;4988591;28;20058;-79
2022/12/03 06:32:37;;;;;;;22.57;18.23;;;4.50;99.90;;;;;;4990995;28;20054;-79
2022/12/03 06:35:03;;;;;;;35.83;22.70;;;4.50;99.90;;;;;;4977733;28;20046;-79
2022/12/03 06:37:29;;;;;;;24.23;20.23;;;4.50;99.90;;;;;;4978688;28;20038;-79
2022/12/03 06:39:55;;;;;;;17.93;16.10;;;4.50;99.90;;;;;;4943365;28;20055;-79
2022/12/03 06:42:21;;;;;;;40.03;22.33;;;4.50;99.90;;;;;;4974996;28;20038;-79
2022/12/03 06:44:47;;;;;;;29.80;22.47;;;4.50;99.90;;;;;;4977840;28;20047;-79
2022/12/03 06:47:13;;;;;;;20.03;17.93;;;4.50;99.90;;;;;;4978519;28;20042;-79
2022/12/03 06:49:39;;;;;;;20.13;17.43;;;4.50;99.90;;;;;;4994699;28;20403;-80
2022/12/03 06:52:05;;;;;;;25.60;18.53;;;4.50;99.90;;;;;;5010917;28;20037;-80
2022/12/03 06:54:31;;;;;;;25.33;18.97;;;4.50;99.90;;;;;;4996543;28;20043;-79
2022/12/03 06:56:58;;;;;;;29.60;21.30;;;4.50;99.90;;;;;;5013826;28;20034;-80
2022/12/03 06:59:24;;;;;;;38.27;23.73;;;4.50;99.90;;;;;;4966803;28;20034;-79
2022/12/03 07:01:50;;;;;;;35.93;24.50;;;4.50;99.90;;;;;;4993235;28;20058;-79
2022/12/03 07:04:16;;;;;;;35.27;24.77;;;4.50;99.90;;;;;;4974583;28;20039;-79
2022/12/03 07:06:42;;;;;;;46.47;25.87;;;4.50;99.90;;;;;;4991159;28;20033;-79
2022/12/03 07:09:08;;;;;;;51.70;30.10;;;4.60;99.90;;;;;;5007337;28;20038;-79
2022/12/03 07:11:40;;;;;;;32.30;21.07;;;4.50;99.90;;;;;;4975738;28;20046;-80
2022/12/03 07:14:07;;;;;;;49.47;29.30;;;4.60;99.90;;;;;;5009165;28;20045;-80
2022/12/03 07:16:34;;;;;;;44.67;25.60;;;4.60;99.90;;;;;;4994296;28;20398;-80
2022/12/03 07:19:00;;;;;;;33.50;22.90;;;4.60;99.90;;;;;;4992410;28;20023;-80
2022/12/03 07:21:26;;;;;;;33.73;22.03;;;4.60;99.90;;;;;;5009587;28;20030;-80
2022/12/03 07:23:52;;;;;;;51.80;28.17;;;4.60;99.90;;;;;;4978918;28;20383;-80
2022/12/03 07:26:18;;;;;;;48.23;28.47;;;4.60;99.90;;;;;;5003013;28;20042;-81
2022/12/03 07:28:47;;;;;;;51.37;28.20;;;4.60;99.90;;;;;;5004331;28;20046;-81
2022/12/03 07:31:13;;;;;;;43.23;27.57;;;4.60;99.90;;;;;;4991768;28;20053;-82
2022/12/03 07:33:39;;;;;;;48.10;29.50;;;4.60;99.90;;;;;;4992265;28;20518;-82
2022/12/03 07:36:06;;;;;;;36.77;24.43;;;4.60;99.90;;;;;;4993837;28;20483;-82
2022/12/03 07:38:32;;;;;;;51.30;30.00;;;4.70;99.90;;;;;;4984378;28;20045;-81
2022/12/03 07:40:58;;;;;;;50.67;28.80;;;4.70;99.90;;;;;;4998987;28;20030;-80
2022/12/03 07:43:24;;;;;;;46.73;30.33;;;4.60;99.90;;;;;;4990420;28;20030;-81
2022/12/03 07:45:50;;;;;;;44.40;28.33;;;4.60;99.90;;;;;;4977891;28;20042;-81
2022/12/03 07:48:16;;;;;;;19.57;15.20;;;4.60;99.90;;;;;;4993359;28;20033;-80
2022/12/03 07:50:42;;;;;;;47.27;26.80;;;4.60;99.90;;;;;;4993242;28;20046;-80
2022/12/03 07:53:08;;;;;;;36.13;23.73;;;4.60;99.90;;;;;;4993116;28;20050;-80
2022/12/03 07:55:34;;;;;;;24.53;17.20;;;4.60;99.90;;;;;;5012072;28;20033;-79
2022/12/03 07:58:01;;;;;;;29.47;19.37;;;4.60;99.90;;;;;;4976471;28;20033;-81
2022/12/03 08:00:27;;;;;;;41.33;25.23;;;4.60;99.90;;;;;;5005093;28;20026;-80
2022/12/03 08:02:53;;;;;;;43.83;30.07;;;4.60;99.90;;;;;;4960215;28;20026;-81
2022/12/03 08:05:19;;;;;;;48.53;30.03;;;4.60;99.90;;;;;;4976139;28;20065;-80
2022/12/03 08:07:45;;;;;;;52.77;29.47;;;4.70;99.90;;;;;;4977129;28;20050;-81
2022/12/03 08:10:11;;;;;;;56.27;28.60;;;4.70;99.90;;;;;;4991287;28;20050;-81
2022/12/03 08:12:40;;;;;;;22.63;16.73;;;4.70;99.90;;;;;;5008332;28;20419;-80
2022/12/03 08:15:20;;;;;;;35.10;21.80;;;4.70;99.90;;;;;;4976985;28;20034;-81
2022/12/03 08:17:50;;;;;;;33.20;22.93;;;4.70;99.90;;;;;;4976790;28;20035;-83
2022/12/03 08:20:18;;;;;;;45.90;28.17;;;4.70;99.90;;;;;;4991228;28;20041;-82
2022/12/03 08:22:45;;;;;;;45.90;26.73;;;4.70;99.90;;;;;;4983786;28;20039;-80
2022/12/03 08:25:21;;;;;;;50.17;27.97;;;4.70;99.90;;;;;;4988884;28;20030;-81
2022/12/03 08:27:47;;;;;;;33.87;20.77;;;4.70;99.90;;;;;;4975572;28;20475;-83
2022/12/03 08:30:14;;;;;;;40.53;24.83;;;4.70;99.90;;;;;;4975447;28;20042;-83
2022/12/03 08:32:40;;;;;;;32.93;19.03;;;4.70;99.90;;;;;;4974758;28;20045;-83
2022/12/03 08:35:14;;;;;;;42.30;25.83;;;4.70;99.90;;;;;;4988906;28;20038;-79
2022/12/03 08:37:40;;;;;;;23.33;17.17;;;4.70;99.90;;;;;;5005123;28;20456;-82
2022/12/03 08:40:24;;;;;;;37.83;23.70;;;4.70;99.90;;;;;;4997453;28;20037;-81
2022/12/03 08:42:50;;;;;;;33.60;20.47;;;4.80;99.90;;;;;;4969652;28;20391;-82
2022/12/03 08:45:28;;;;;;;41.67;24.70;;;4.80;99.90;;;;;;4968934;28;20369;-84
2022/12/03 08:47:55;;;;;;;45.83;26.47;;;4.80;99.90;;;;;;5002816;28;20045;-83
2022/12/03 08:50:26;;;;;;;21.67;14.93;;;4.70;99.90;;;;;;4974482;28;20452;-83
2022/12/03 08:52:52;;;;;;;;;;;4.70;99.90;;;;;;5006472;28;20554;-83
2022/12/03 08:55:32;;;;;;;28.80;20.13;;;4.80;99.90;;;;;;4993261;28;19924;-82
2022/12/03 08:57:58;;;;;;;42.60;25.87;;;4.80;99.90;;;;;;4957687;28;20523;-82
2022/12/03 09:00:24;;;;;;;27.97;20.47;;;4.80;99.90;;;;;;4975615;28;20373;-83
2022/12/03 09:02:52;;;;;;;35.83;25.07;;;4.80;99.90;;;;;;4977752;28;20379;-82
2022/12/03 09:05:22;;;;;;;36.20;23.90;;;4.70;99.90;;;;;;4965777;28;20035;-82
2022/12/03 09:07:48;;;;;;;44.78;26.00;;;4.80;99.90;;;;;;4996019;28;20023;-83
2022/12/03 09:10:15;;;;;;;21.97;18.23;;;4.80;99.90;;;;;;5013621;28;20053;-83
2022/12/03 09:12:41;;;;;;;43.70;27.40;;;4.80;99.90;;;;;;4991688;28;20022;-83
2022/12/03 09:15:07;;;;;;;26.40;18.70;;;4.80;99.90;;;;;;4954738;28;20034;-84
2022/12/03 09:17:33;;;;;;;41.43;27.43;;;4.80;99.90;;;;;;5002505;28;20407;-82
2022/12/03 09:19:59;;;;;;;32.93;22.97;;;4.80;99.90;;;;;;4989843;28;20035;-82
2022/12/03 09:22:25;;;;;;;20.00;16.83;;;4.80;99.90;;;;;;4986918;28;20038;-80
2022/12/03 09:24:51;;;;;;;35.63;23.90;;;4.80;99.90;;;;;;4987945;28;20033;-79
2022/12/03 09:27:19;;;;;;;18.40;16.43;;;4.90;99.90;;;;;;4982203;28;20049;-82
2022/12/03 09:29:45;;;;;;;37.70;23.87;;;4.80;99.90;;;;;;4973661;28;20053;-81
2022/12/03 09:32:11;;;;;;;37.27;24.10;;;4.80;99.90;;;;;;4981135;28;20411;-81
2022/12/03 09:34:37;;;;;;;33.60;23.63;;;4.80;99.90;;;;;;4998099;28;20065;-81
2022/12/03 09:37:04;;;;;;;39.83;27.80;;;4.80;99.90;;;;;;4992872;28;20043;-83
2022/12/03 09:39:30;;;;;;;36.90;26.23;;;4.80;99.90;;;;;;4993311;28;20038;-84
2022/12/03 09:41:56;;;;;;;20.90;18.07;;;4.80;99.90;;;;;;4996309;28;20037;-84
2022/12/03 09:44:22;;;;;;;25.70;18.03;;;4.80;99.90;;;;;;4964268;28;20047;-82
2022/12/03 09:46:48;;;;;;;27.97;21.83;;;4.80;99.90;;;;;;4995574;28;20045;-83
2022/12/03 09:49:15;;;;;;;34.63;25.13;;;4.80;99.90;;;;;;4961809;28;20479;-82
2022/12/03 09:51:42;;;;;;;24.33;17.97;;;4.80;99.90;;;;;;4997945;28;20412;-83
2022/12/03 09:54:09;;;;;;;35.77;26.00;;;4.80;99.90;;;;;;4992212;28;20049;-81
2022/12/03 09:56:36;;;;;;;38.47;27.70;;;4.80;99.90;;;;;;4997549;28;20052;-82
2022/12/03 09:59:05;;;;;;;43.10;28.87;;;4.90;99.90;;;;;;4982684;28;20046;-82
2022/12/03 10:01:31;;;;;;;30.20;22.70;;;4.90;99.90;;;;;;5014068;28;20034;-82
2022/12/03 10:03:57;;;;;;;36.77;23.43;;;4.90;99.90;;;;;;5004041;28;20034;-80
2022/12/03 10:06:23;;;;;;;33.57;24.17;;;4.80;99.90;;;;;;5013869;28;20033;-82
2022/12/03 10:08:53;;;;;;;34.70;25.07;;;4.80;99.90;;;;;;5014332;28;20038;-82
2022/12/03 10:11:21;;;;;;;31.70;22.70;;;4.90;99.90;;;;;;4994239;28;20054;-81
2022/12/03 10:13:47;;;;;;;22.87;17.83;;;4.80;99.90;;;;;;4970051;28;20037;-82
2022/12/03 10:16:15;;;;;;;29.53;20.33;;;4.80;99.90;;;;;;4980526;28;20061;-82
2022/12/03 10:18:47;;;;;;;37.47;25.50;;;4.80;99.90;;;;;;4978313;28;20387;-81
2022/12/03 10:21:43;;;;;;;32.43;25.33;;;4.90;99.90;;;;;;5030496;28;20026;-81
2022/12/03 10:24:22;;;;;;;30.07;23.00;;;4.90;99.90;;;;;;5006979;28;20038;-78
2022/12/03 10:26:49;;;;;;;18.10;14.80;;;4.90;99.90;;;;;;4997068;28;20659;-79
2022/12/03 10:29:20;;;;;;;26.63;21.47;;;4.90;99.90;;;;;;4965373;28;20053;-80
2022/12/03 10:31:57;;;;;;;36.03;24.33;;;4.80;99.90;;;;;;4984029;28;20040;-78
2022/12/03 10:34:24;;;;;;;29.23;22.03;;;4.90;99.90;;;;;;4997539;28;20041;-78
2022/12/03 10:37:15;;;;;;;26.97;21.00;;;4.90;99.90;;;;;;4994823;28;20388;-79
2022/12/03 10:40:08;;;;;;;30.03;21.43;;;4.90;99.90;;;;;;4981364;28;20045;-79
2022/12/03 10:42:36;;;;;;;21.83;14.43;;;4.90;99.90;;;;;;5012974;28;20037;-79
2022/12/03 10:45:15;;;;;;;26.83;22.07;;;4.90;99.90;;;;;;4964830;28;20041;-78
2022/12/03 10:47:42;;;;;;;25.07;20.93;;;4.90;99.90;;;;;;4996208;28;20034;-80
2022/12/03 10:50:16;;;;;;;28.57;22.70;;;5.00;99.90;;;;;;5008651;28;20053;-81
2022/12/03 10:52:43;;;;;;;27.47;21.83;;;5.00;99.90;;;;;;5009504;28;20035;-80
2022/12/03 10:55:11;;;;;;;23.00;19.43;;;4.90;99.90;;;;;;4979600;28;20329;-78
2022/12/03 10:57:37;;;;;;;24.20;20.73;;;4.90;99.90;;;;;;4981624;28;20034;-79
2022/12/03 11:00:05;;;;;;;20.50;17.83;;;5.00;99.90;;;;;;4961622;28;20065;-81
2022/12/03 11:02:31;;;;;;;16.17;14.47;;;5.00;99.90;;;;;;4993984;28;20038;-79
2022/12/03 11:04:57;;;;;;;22.00;17.87;;;5.00;99.90;;;;;;4993910;28;20026;-78
2022/12/03 11:07:24;;;;;;;27.07;22.57;;;4.90;99.90;;;;;;4961877;28;20414;-78
2022/12/03 11:09:53;;;;;;;19.80;17.37;;;4.90;99.90;;;;;;4978091;28;20383;-78
2022/12/03 11:12:23;;;;;;;20.37;16.73;;;4.90;99.90;;;;;;4971208;28;20046;-77
2022/12/03 11:14:49;;;;;;;21.93;19.40;;;5.00;99.90;;;;;;4988941;28;20034;-78
2022/12/03 11:17:38;;;;;;;18.50;16.60;;;5.00;99.90;;;;;;4994449;28;20034;-79
2022/12/03 11:20:08;;;;;;;24.13;19.63;;;5.00;99.90;;;;;;4975985;28;20031;-78
2022/12/03 11:22:38;;;;;;;32.33;20.63;;;4.90;99.90;;;;;;4978465;28;20030;-78
2022/12/03 11:25:23;;;;;;;25.85;20.42;;;5.00;99.90;;;;;;4984025;28;20046;-79
2022/12/03 11:28:11;;;;;;;22.57;19.30;;;5.00;99.90;;;;;;5007994;28;20046;-77
2022/12/03 11:30:50;;;;;;;30.40;20.83;;;5.00;99.90;;;;;;4993151;28;20038;-78
2022/12/03 11:33:21;;;;;;;20.67;17.37;;;5.00;99.90;;;;;;4993252;28;20033;-78
2022/12/03 11:36:08;;;;;;;21.67;17.60;;;5.00;99.90;;;;;;4993492;28;20038;-78
2022/12/03 11:38:39;;;;;;;21.83;18.97;;;5.00;99.90;;;;;;4976015;28;20042;-78
2022/12/03 11:41:12;;;;;;;16.53;14.93;;;5.00;99.90;;;;;;4991893;28;20038;-78
2022/12/03 11:43:56;;;;;;;26.77;20.33;;;5.00;99.90;;;;;;4993069;28;20495;-80
2022/12/03 11:46:34;;;;;;;26.60;22.27;;;5.00;99.90;;;;;;4993754;28;20046;-80
2022/12/03 11:49:01;;;;;;;28.17;21.37;;;5.00;99.90;;;;;;4992685;28;20037;-79
2022/12/03 11:51:27;;;;;;;29.73;23.60;;;5.00;99.90;;;;;;4971493;28;20050;-80
2022/12/03 11:53:54;;;;;;;18.43;15.83;;;5.00;99.90;;;;;;4972499;28;20030;-80
2022/12/03 11:56:25;;;;;;;26.20;21.53;;;5.00;99.90;;;;;;4987563;28;20022;-81
2022/12/03 11:58:59;;;;;;;30.30;21.45;;;5.00;99.90;;;;;;4996467;28;20025;-80
2022/12/03 12:01:36;;;;;;;24.27;20.70;;;5.00;99.90;;;;;;4977794;28;20034;-80
2022/12/03 12:04:03;;;;;;;15.83;13.37;;;5.10;99.90;;;;;;4992795;28;20041;-80
2022/12/03 12:06:40;;;;;;;27.10;22.87;;;5.00;99.90;;;;;;4958666;28;20357;-80
2022/12/03 12:09:06;;;;;;;22.77;18.10;;;5.00;99.90;;;;;;4985491;28;20098;-80
2022/12/03 12:11:36;;;;;;;17.90;15.97;;;5.10;99.90;;;;;;4992323;28;20042;-79
2022/12/03 12:14:11;;;;;;;29.93;24.07;;;5.10;99.90;;;;;;4989545;28;20041;-79
2022/12/03 12:16:50;;;;;;;30.93;23.73;;;5.00;99.90;;;;;;4991308;28;20045;-80
2022/12/03 12:19:35;;;;;;;31.80;23.13;;;5.10;99.90;;;;;;4975579;28;20041;-80
2022/12/03 12:22:23;;;;;;;23.30;19.37;;;5.10;99.90;;;;;;4993565;28;20026;-80
2022/12/03 12:24:56;;;;;;;20.47;18.40;;;5.10;99.90;;;;;;5012753;28;20038;-80
2022/12/03 12:27:30;;;;;;;34.00;24.37;;;5.10;99.90;;;;;;4989523;28;20062;-79
2022/12/03 12:29:59;;;;;;;28.83;20.23;;;5.20;99.90;;;;;;4983172;28;20053;-79
2022/12/03 12:32:30;;;;;;;22.87;17.90;;;5.20;99.90;;;;;;4975349;28;20042;-79
2022/12/03 12:35:15;;;;;;;30.60;22.92;;;5.10;99.90;;;;;;5002259;28;20026;-78
2022/12/03 12:37:52;;;;;;;31.67;21.30;;;5.10;99.90;;;;;;4966009;28;20070;-80
2022/12/03 12:40:20;;;;;;;26.20;21.23;;;5.10;99.90;;;;;;4972735;28;20034;-80
2022/12/03 12:42:56;;;;;;;21.27;18.13;;;5.10;99.90;;;;;;4973039;28;20027;-80
2022/12/03 12:45:23;;;;;;;24.17;17.13;;;5.10;99.90;;;;;;4986637;28;20476;-79
2022/12/03 12:48:08;;;;;;;26.20;21.57;;;5.10;99.90;;;;;;4975013;28;20031;-80
2022/12/03 12:50:36;;;;;;;20.07;15.83;;;5.10;99.90;;;;;;5008183;28;20050;-80
2022/12/03 12:53:30;;;;;;;25.93;21.23;;;5.10;99.90;;;;;;4978310;28;20480;-80
2022/12/03 12:55:58;;;;;;;17.30;13.50;;;5.10;99.90;;;;;;4979264;28;20045;-79
2022/12/03 12:58:25;;;;;;;22.13;19.17;;;5.00;99.90;;;;;;5007119;28;20494;-79
2022/12/03 13:00:52;;;;;;;24.20;20.03;;;5.00;99.90;;;;;;5010875;28;20030;-79